TimeCST,TemperatureF,Dew PointF,Humidity,Sea Level PressureIn,VisibilityMPH,Wind Direction,Wind SpeedMPH,Gust SpeedMPH,PrecipitationIn,Events,Conditions,WindDirDegrees,DateUTC
12:11 AM,6.8,3.2,85,30.18,10.0,NW,21.9,26.5,N/A,,Scattered Clouds,320,2013-01-03 06:11:00
12:31 AM,6.8,3.2,85,30.17,10.0,NW,23.0,-,N/A,,Scattered Clouds,320,2013-01-03 06:31:00
1:11 AM,6.8,1.4,79,30.19,10.0,NW,16.1,-,N/A,,Mostly Cloudy,320,2013-01-03 07:11:00
1:31 AM,5.0,1.4,85,30.19,10.0,NW,19.6,-,N/A,,Scattered Clouds,320,2013-01-03 07:31:00
1:51 AM,5.0,1.4,85,30.19,10.0,NW,15.0,18.4,N/A,,Clear,320,2013-01-03 07:51:00
2:11 AM,3.2,-0.4,85,30.20,10.0,NW,17.3,-,N/A,,Clear,320,2013-01-03 08:11:00
2:31 AM,3.2,-0.4,85,30.20,10.0,NW,17.3,-,N/A,,Scattered Clouds,320,2013-01-03 08:31:00
2:51 AM,3.2,-0.4,85,30.20,10.0,NW,13.8,-,N/A,,Scattered Clouds,310,2013-01-03 08:51:00
3:11 AM,3.2,-0.4,85,30.21,10.0,NW,16.1,-,N/A,,Mostly Cloudy,320,2013-01-03 09:11:00
3:31 AM,3.2,-0.4,85,30.22,10.0,NW,13.8,-,N/A,,Overcast,320,2013-01-03 09:31:00
3:51 AM,3.2,-0.4,85,30.23,10.0,NW,19.6,24.2,N/A,,Overcast,320,2013-01-03 09:51:00
4:11 AM,3.2,-0.4,85,30.23,10.0,NW,18.4,-,N/A,,Overcast,320,2013-01-03 10:11:00
4:31 AM,3.2,-0.4,85,30.23,10.0,NW,18.4,-,N/A,,Overcast,320,2013-01-03 10:31:00
4:51 AM,3.2,-0.4,85,30.24,10.0,NW,18.4,23.0,N/A,,Scattered Clouds,320,2013-01-03 10:51:00
5:11 AM,3.2,-0.4,85,30.23,10.0,NW,19.6,-,N/A,,Clear,320,2013-01-03 11:11:00
5:31 AM,3.2,-0.4,85,30.24,10.0,NW,17.3,-,N/A,,Clear,320,2013-01-03 11:31:00
5:51 AM,3.2,-0.4,85,30.24,10.0,NW,17.3,-,N/A,,Clear,320,2013-01-03 11:51:00
6:11 AM,3.2,-0.4,85,30.24,10.0,NNW,15.0,-,N/A,,Clear,330,2013-01-03 12:11:00
6:31 AM,1.4,-0.4,92,30.25,10.0,NW,12.7,-,N/A,,Clear,320,2013-01-03 12:31:00
6:51 AM,3.2,-0.4,85,30.25,10.0,NNW,12.7,-,N/A,,Clear,330,2013-01-03 12:51:00
7:11 AM,1.4,-2.2,85,30.25,10.0,NW,11.5,-,N/A,,Clear,320,2013-01-03 13:11:00
7:31 AM,1.4,-2.2,85,30.25,10.0,NW,10.4,-,N/A,,Clear,310,2013-01-03 13:31:00
7:51 AM,1.4,-2.2,85,30.25,10.0,NW,10.4,-,N/A,,Clear,320,2013-01-03 13:51:00
8:11 AM,1.4,-2.2,85,30.25,10.0,WNW,6.9,-,N/A,,Clear,300,2013-01-03 14:11:00
8:31 AM,1.4,-2.2,85,30.26,10.0,WNW,8.1,-,N/A,,Scattered Clouds,300,2013-01-03 14:31:00
8:51 AM,1.4,-2.2,85,30.27,5.0,NW,5.8,-,N/A,Snow,Light Snow,310,2013-01-03 14:51:00
9:11 AM,3.2,-0.4,85,30.26,3.0,NW,5.8,-,N/A,Snow,Light Snow,320,2013-01-03 15:11:00
9:31 AM,5.0,1.4,85,30.27,2.5,NW,8.1,-,N/A,Snow,Light Snow,310,2013-01-03 15:31:00
9:51 AM,6.8,1.4,79,30.27,2.0,WNW,6.9,-,N/A,Snow,Light Snow,290,2013-01-03 15:51:00
10:11 AM,6.8,1.4,79,30.27,2.5,West,3.5,-,N/A,Snow,Light Snow,270,2013-01-03 16:11:00
10:31 AM,8.6,3.2,79,30.26,2.0,WNW,3.5,-,N/A,Snow,Light Snow,290,2013-01-03 16:31:00
10:51 AM,8.6,3.2,79,30.25,3.0,West,3.5,-,N/A,Snow,Light Snow,260,2013-01-03 16:51:00
11:11 AM,10.4,3.2,73,30.25,4.0,WSW,5.8,-,N/A,Snow,Light Snow,250,2013-01-03 17:11:00
11:31 AM,10.4,5.0,79,30.25,7.0,WSW,5.8,-,N/A,Snow,Light Snow,240,2013-01-03 17:31:00
11:51 AM,12.2,6.8,79,30.23,7.0,SW,4.6,-,N/A,Snow,Light Snow,230,2013-01-03 17:51:00
12:11 PM,12.2,8.6,85,30.23,7.0,WSW,8.1,-,N/A,Snow,Light Snow,240,2013-01-03 18:11:00
12:31 PM,14.0,8.6,79,30.22,7.0,WSW,8.1,-,N/A,Snow,Light Snow,240,2013-01-03 18:31:00
12:51 PM,15.8,10.4,79,30.20,7.0,SW,5.8,-,N/A,Snow,Light Snow,230,2013-01-03 18:51:00
1:11 PM,15.8,10.4,79,30.20,10.0,WSW,6.9,-,N/A,Snow,Light Snow,240,2013-01-03 19:11:00
1:31 PM,17.6,12.2,79,30.19,10.0,WSW,3.5,-,N/A,,Mostly Cloudy,240,2013-01-03 19:31:00
1:51 PM,19.4,12.2,74,30.18,10.0,SSW,4.6,-,N/A,,Scattered Clouds,210,2013-01-03 19:51:00
2:11 PM,17.6,10.4,73,30.18,10.0,SSW,6.9,-,N/A,,Clear,200,2013-01-03 20:11:00
2:31 PM,17.6,10.4,73,30.18,10.0,SSW,9.2,-,N/A,,Clear,200,2013-01-03 20:31:00
2:51 PM,15.8,10.4,79,30.18,10.0,South,9.2,-,N/A,,Clear,190,2013-01-03 20:51:00
3:11 PM,15.8,10.4,79,30.18,10.0,South,9.2,-,N/A,,Clear,190,2013-01-03 21:11:00
3:31 PM,15.8,10.4,79,30.18,10.0,South,10.4,-,N/A,,Clear,190,2013-01-03 21:31:00
3:51 PM,15.8,10.4,79,30.17,10.0,South,9.2,-,N/A,,Clear,180,2013-01-03 21:51:00
4:11 PM,15.8,10.4,79,30.16,10.0,South,8.1,-,N/A,,Clear,190,2013-01-03 22:11:00
4:31 PM,14.0,8.6,79,30.16,10.0,South,6.9,-,N/A,,Clear,190,2013-01-03 22:31:00
4:51 PM,12.2,8.6,85,30.16,10.0,SSW,6.9,-,N/A,,Clear,200,2013-01-03 22:51:00
5:11 PM,10.4,8.6,92,30.15,10.0,SSW,6.9,-,N/A,,Clear,210,2013-01-03 23:11:00
5:31 PM,10.4,6.8,85,30.14,10.0,SSW,8.1,-,N/A,,Clear,210,2013-01-03 23:31:00
5:51 PM,10.4,8.6,92,30.13,10.0,SSW,8.1,-,N/A,,Clear,210,2013-01-03 23:51:00
6:11 PM,10.4,8.6,92,30.12,10.0,SSW,10.4,-,N/A,,Clear,200,2013-01-04 00:11:00
6:31 PM,10.4,6.8,85,30.11,10.0,SSW,9.2,-,N/A,,Clear,200,2013-01-04 00:31:00
6:51 PM,10.4,6.8,85,30.10,10.0,SSW,8.1,-,N/A,,Clear,200,2013-01-04 00:51:00
7:11 PM,10.4,8.6,92,30.10,10.0,SSW,8.1,-,N/A,,Clear,200,2013-01-04 01:11:00
7:31 PM,10.4,6.8,85,30.08,10.0,SSW,8.1,-,N/A,,Clear,200,2013-01-04 01:31:00
7:51 PM,10.4,8.6,92,30.08,10.0,SSW,8.1,-,N/A,,Clear,200,2013-01-04 01:51:00
8:11 PM,12.2,10.4,92,30.07,10.0,SSW,6.9,-,N/A,,Clear,210,2013-01-04 02:11:00
8:31 PM,12.2,10.4,92,30.05,10.0,SSW,6.9,-,N/A,,Clear,200,2013-01-04 02:31:00
8:51 PM,12.2,10.4,92,30.05,10.0,SSW,5.8,-,N/A,,Clear,200,2013-01-04 02:51:00
9:11 PM,10.4,8.6,92,30.05,10.0,South,5.8,-,N/A,,Clear,190,2013-01-04 03:11:00
9:31 PM,8.6,6.8,92,30.04,10.0,South,6.9,-,N/A,,Clear,180,2013-01-04 03:31:00
9:51 PM,8.6,5.0,85,30.03,10.0,South,8.1,-,N/A,,Clear,190,2013-01-04 03:51:00
10:11 PM,8.6,6.8,92,30.02,10.0,South,9.2,-,N/A,,Clear,190,2013-01-04 04:11:00
10:31 PM,12.2,10.4,92,30.00,10.0,SSW,9.2,-,N/A,,Clear,200,2013-01-04 04:31:00
10:51 PM,15.8,12.2,86,30.01,10.0,WSW,9.2,-,N/A,,Clear,240,2013-01-04 04:51:00
11:11 PM,17.6,12.2,79,30.00,10.0,SSW,8.1,-,N/A,,Clear,210,2013-01-04 05:11:00
11:31 PM,19.4,14.0,80,30.02,10.0,West,8.1,-,N/A,,Clear,270,2013-01-04 05:31:00
11:51 PM,17.6,12.2,79,30.01,10.0,WSW,8.1,-,N/A,,Clear,240,2013-01-04 05:51:00